Time;durP1;ratioP1;P1;durP2;ratioP2;P2;SDS_P1;SDS_P2;PMS_P1;PMS_P2;Temp;Humidity;BMP_temperature;BMP_pressure;BME280_temperature;BME280_humidity;BME280_pressure;Samples;Min_cycle;Max_cycle;Signal;HPM_P1;HPM_P2
2022/11/06 00:00:05;;;;;;;13.88;1.88;;;;;;;;;;6229092;23;20079;-78
2022/11/06 00:02:31;;;;;;;5.68;1.30;;;;;;;;;;6228917;23;20004;-79
2022/11/06 00:06:46;;;;;;;8.00;1.58;;;;;;;;;;6228368;23;20053;-80
2022/11/06 00:07:47;;;;;;;8.95;2.20;;;;;;;;;;6231169;23;20012;-80
2022/11/06 00:10:16;;;;;;;9.95;2.05;;;;;;;;;;6228121;23;20527;-74
2022/11/06 00:12:42;;;;;;;9.75;1.85;;;;;;;;;;6231634;23;20053;-72
2022/11/06 00:15:09;;;;;;;9.88;2.03;;;;;;;;;;6231544;23;19996;-73
2022/11/06 00:17:35;;;;;;;6.00;1.60;;;;;;;;;;6231247;23;20005;-73
2022/11/06 00:20:01;;;;;;;5.53;1.30;;;;;;;;;;6229328;23;20085;-76
2022/11/06 00:22:27;;;;;;;6.95;1.38;;;;;;;;;;6230264;23;20066;-74
2022/11/06 00:24:53;;;;;;;7.03;1.52;;;;;;;;;;6233942;23;20004;-74
2022/11/06 00:27:19;;;;;;;9.00;2.05;;;;;;;;;;6234512;23;20008;-74
2022/11/06 00:29:45;;;;;;;7.65;2.05;;;;;;;;;;6233710;23;20023;-74
2022/11/06 00:32:12;;;;;;;9.38;1.58;;;;;;;;;;6232369;23;20000;-74
2022/11/06 00:34:38;;;;;;;6.43;1.65;;;;;;;;;;6234031;23;20012;-74
2022/11/06 00:37:04;;;;;;;13.45;2.35;;;;;;;;;;6206854;23;20675;-75
2022/11/06 00:39:30;;;;;;;9.57;2.00;;;;;;;;;;6233934;23;20008;-74
2022/11/06 00:41:56;;;;;;;8.80;1.75;;;;;;;;;;6232265;23;20053;-74
2022/11/06 00:44:22;;;;;;;9.27;1.85;;;;;;;;;;6233669;23;20097;-75
2022/11/06 00:46:48;;;;;;;11.00;1.60;;;;;;;;;;6234025;23;20011;-75
2022/11/06 00:49:15;;;;;;;13.95;2.45;;;;;;;;;;6233743;23;20115;-74
2022/11/06 00:51:41;;;;;;;10.57;2.00;;;;;;;;;;6233653;23;20006;-74
2022/11/06 00:54:10;;;;;;;7.38;1.42;;;;;;;;;;6233271;23;20011;-75
2022/11/06 00:56:36;;;;;;;9.02;1.90;;;;;;;;;;6231254;22;20036;-74
2022/11/06 00:59:03;;;;;;;13.18;2.35;;;;;;;;;;6201411;23;20326;-73
2022/11/06 01:01:31;;;;;;;13.13;1.70;;;;;;;;;;6202634;23;20001;-73
2022/11/06 01:03:59;;;;;;;6.53;2.15;;;;;;;;;;6202956;23;20005;-75
2022/11/06 01:06:27;;;;;;;9.85;2.58;;;;;;;;;;6202845;23;20084;-74
2022/11/06 01:08:53;;;;;;;9.70;1.40;;;;;;;;;;6200470;23;20718;-74
2022/11/06 01:11:24;;;;;;;12.73;2.70;;;;;;;;;;6202991;23;20008;-75
2022/11/06 01:13:51;;;;;;;10.35;1.90;;;;;;;;;;6202797;23;20104;-75
2022/11/06 01:16:17;;;;;;;5.75;1.50;;;;;;;;;;6203409;23;20039;-74
2022/11/06 01:18:43;;;;;;;10.52;1.85;;;;;;;;;;6203476;23;20011;-74
2022/11/06 01:21:11;;;;;;;8.15;2.15;;;;;;;;;;6206319;23;20001;-75
2022/11/06 01:23:37;;;;;;;8.00;2.05;;;;;;;;;;6204069;23;20007;-74
2022/11/06 01:26:06;;;;;;;10.98;1.63;;;;;;;;;;6205361;23;20072;-74
2022/11/06 01:28:33;;;;;;;14.13;2.22;;;;;;;;;;6204075;23;20063;-74
2022/11/06 01:31:06;;;;;;;9.20;2.47;;;;;;;;;;6205539;23;20007;-74
2022/11/06 01:33:33;;;;;;;10.20;1.70;;;;;;;;;;6205634;23;20403;-75
2022/11/06 01:35:59;;;;;;;9.73;2.17;;;;;;;;;;6205835;23;20003;-74
2022/11/06 01:38:26;;;;;;;9.00;1.92;;;;;;;;;;6204395;23;20650;-75
2022/11/06 01:40:52;;;;;;;14.55;2.33;;;;;;;;;;6204324;23;20005;-75
2022/11/06 01:43:19;;;;;;;11.50;1.70;;;;;;;;;;6204413;23;20008;-75
2022/11/06 01:45:48;;;;;;;8.50;1.55;;;;;;;;;;6205652;23;20005;-75
2022/11/06 01:48:14;;;;;;;9.35;1.58;;;;;;;;;;6205837;23;20016;-74
2022/11/06 01:50:41;;;;;;;9.70;1.65;;;;;;;;;;6202489;23;20084;-75
2022/11/06 01:53:08;;;;;;;8.18;1.63;;;;;;;;;;6205818;23;20001;-75
2022/11/06 01:55:36;;;;;;;4.88;1.45;;;;;;;;;;6206829;23;20007;-75
2022/11/06 01:58:03;;;;;;;9.25;1.85;;;;;;;;;;6219452;23;20040;-74
2022/11/06 02:00:31;;;;;;;5.35;1.35;;;;;;;;;;6237441;23;20030;-74
2022/11/06 02:02:57;;;;;;;4.57;1.20;;;;;;;;;;6237696;23;20011;-75
2022/11/06 02:05:23;;;;;;;9.93;1.73;;;;;;;;;;6235833;23;20474;-75
2022/11/06 02:07:50;;;;;;;8.88;1.77;;;;;;;;;;6237293;23;20004;-74
2022/11/06 02:10:16;;;;;;;11.20;1.80;;;;;;;;;;6237473;23;20000;-75
2022/11/06 02:13:01;;;;;;;7.45;1.88;;;;;;;;;;6237739;23;20001;-75
2022/11/06 02:15:36;;;;;;;5.22;1.60;;;;;;;;;;6238253;23;20062;-75
2022/11/06 02:18:21;;;;;;;8.20;1.95;;;;;;;;;;6238055;23;20000;-75
2022/11/06 02:21:17;;;;;;;8.40;1.83;;;;;;;;;;6235465;23;20004;-74
2022/11/06 02:24:01;;;;;;;9.45;1.75;;;;;;;;;;6129982;23;20012;-76
2022/11/06 02:26:33;;;;;;;13.50;2.08;;;;;;;;;;6237798;23;20032;-75
2022/11/06 02:29:05;;;;;;;11.23;1.67;;;;;;;;;;6237885;23;20016;-75
2022/11/06 02:31:31;;;;;;;;;;;;;;;;;;6211083;23;20027;-74
2022/11/06 02:34:01;;;;;;;12.88;2.13;;;;;;;;;;6209391;23;20201;-75
2022/11/06 02:36:30;;;;;;;5.13;1.33;;;;;;;;;;6238208;23;20436;-75
2022/11/06 02:38:58;;;;;;;7.93;1.55;;;;;;;;;;6237685;23;20456;-75
2022/11/06 02:41:33;;;;;;;4.38;1.70;;;;;;;;;;6237674;23;20050;-74
2022/11/06 02:44:00;;;;;;;15.07;1.92;;;;;;;;;;6235498;23;20057;-75
2022/11/06 02:46:31;;;;;;;8.30;1.45;;;;;;;;;;6210799;23;20005;-75
2022/11/06 02:49:24;;;;;;;7.87;1.60;;;;;;;;;;6237850;23;20019;-75
2022/11/06 02:51:53;;;;;;;7.88;2.17;;;;;;;;;;6235811;23;20087;-75
2022/11/06 02:54:20;;;;;;;7.47;1.50;;;;;;;;;;6237112;23;20448;-74
2022/11/06 02:56:50;;;;;;;8.73;1.52;;;;;;;;;;6237091;22;20000;-75
2022/11/06 02:59:20;;;;;;;4.00;1.48;;;;;;;;;;6236279;23;20020;-75
2022/11/06 03:01:51;;;;;;;7.75;1.85;;;;;;;;;;6235131;23;20424;-75
2022/11/06 03:04:26;;;;;;;8.27;1.70;;;;;;;;;;6235978;23;20004;-76
2022/11/06 03:07:05;;;;;;;10.63;2.08;;;;;;;;;;6236804;23;20106;-75
2022/11/06 03:09:32;;;;;;;8.32;1.50;;;;;;;;;;6236905;23;20091;-75
2022/11/06 03:12:14;;;;;;;11.82;1.65;;;;;;;;;;6235407;23;20008;-74
2022/11/06 03:14:46;;;;;;;8.98;1.80;;;;;;;;;;6236652;23;20336;-74
2022/11/06 03:17:12;;;;;;;;;;;;;;;;;;6237149;23;20014;-74
2022/11/06 03:19:55;;;;;;;4.95;1.30;;;;;;;;;;6237028;23;19974;-75
2022/11/06 03:22:24;;;;;;;10.15;1.45;;;;;;;;;;6234506;23;20004;-74
2022/11/06 03:24:56;;;;;;;7.95;1.40;;;;;;;;;;6231797;23;20550;-75
2022/11/06 03:27:28;;;;;;;9.15;1.55;;;;;;;;;;6233900;23;20007;-75
2022/11/06 03:29:59;;;;;;;4.70;1.35;;;;;;;;;;6233735;23;20012;-74
2022/11/06 03:32:34;;;;;;;9.00;1.98;;;;;;;;;;6234085;23;20006;-75
2022/11/06 03:35:00;;;;;;;8.82;1.90;;;;;;;;;;6232738;23;20146;-74
2022/11/06 03:37:32;;;;;;;8.98;2.08;;;;;;;;;;6232356;23;20004;-75
2022/11/06 03:40:00;;;;;;;11.68;1.80;;;;;;;;;;6229985;23;20572;-74
2022/11/06 03:42:29;;;;;;;8.43;1.67;;;;;;;;;;6231076;23;20065;-75
2022/11/06 03:45:00;;;;;;;5.68;1.45;;;;;;;;;;6230910;23;20529;-75
2022/11/06 03:47:29;;;;;;;5.85;2.33;;;;;;;;;;6203626;23;20110;-75
2022/11/06 03:50:05;;;;;;;5.13;1.40;;;;;;;;;;6231062;23;20022;-75
2022/11/06 03:52:34;;;;;;;18.83;1.90;;;;;;;;;;6230665;23;20008;-75
2022/11/06 03:55:07;;;;;;;9.60;1.88;;;;;;;;;;6229680;23;20026;-75
2022/11/06 03:57:44;;;;;;;10.40;2.20;;;;;;;;;;6228661;22;20559;-74
2022/11/06 04:00:11;;;;;;;12.02;2.20;;;;;;;;;;6231523;23;20019;-74
2022/11/06 04:02:39;;;;;;;6.55;1.88;;;;;;;;;;6230653;23;20067;-74
2022/11/06 04:05:08;;;;;;;6.32;1.80;;;;;;;;;;6228975;23;20011;-74
2022/11/06 04:07:36;;;;;;;11.32;1.50;;;;;;;;;;6230443;23;20015;-75
2022/11/06 04:15:40;;;;;;;11.60;1.98;;;;;;;;;;6229497;23;20086;-75
2022/11/06 04:18:13;;;;;;;9.45;1.70;;;;;;;;;;6228770;23;20014;-74
2022/11/06 04:26:34;;;;;;;12.60;2.72;;;;;;;;;;6233361;23;20448;-74
2022/11/06 04:26:39;;;;;;;7.45;1.38;;;;;;;;;;6233277;23;20008;-74
2022/11/06 04:29:09;;;;;;;5.28;1.45;;;;;;;;;;6233017;23;20510;-74
2022/11/06 04:31:46;;;;;;;8.60;1.30;;;;;;;;;;6232167;23;20496;-74
2022/11/06 04:34:25;;;;;;;8.60;1.38;;;;;;;;;;6233682;23;20008;-76
2022/11/06 04:37:00;;;;;;;7.28;1.77;;;;;;;;;;6233595;23;20007;-75
2022/11/06 04:39:34;;;;;;;8.38;1.52;;;;;;;;;;6232974;23;19996;-74
2022/11/06 04:42:19;;;;;;;3.95;1.27;;;;;;;;;;6233401;23;20008;-75
2022/11/06 04:44:50;;;;;;;7.47;2.15;;;;;;;;;;6233237;23;20079;-76
2022/11/06 04:47:18;;;;;;;9.10;1.92;;;;;;;;;;6206572;23;20004;-75
2022/11/06 04:49:45;;;;;;;8.57;2.03;;;;;;;;;;6233537;23;20203;-74
2022/11/06 04:52:13;;;;;;;14.45;2.33;;;;;;;;;;6231505;23;20090;-74
2022/11/06 04:54:39;;;;;;;7.85;2.00;;;;;;;;;;6233238;23;20000;-74
2022/11/06 04:57:05;;;;;;;11.00;2.65;;;;;;;;;;6233641;22;20008;-74
2022/11/06 04:59:34;;;;;;;6.93;1.40;;;;;;;;;;6233686;23;20091;-76
2022/11/06 05:02:00;;;;;;;7.07;1.55;;;;;;;;;;6233576;23;20004;-75
2022/11/06 05:04:27;;;;;;;11.35;1.55;;;;;;;;;;6231486;23;20106;-75
2022/11/06 05:06:53;;;;;;;6.75;1.60;;;;;;;;;;6206918;23;20102;-74
2022/11/06 05:09:19;;;;;;;9.82;2.03;;;;;;;;;;6233470;23;20058;-74
2022/11/06 05:11:45;;;;;;;3.88;1.40;;;;;;;;;;6206558;23;20000;-74
2022/11/06 05:14:11;;;;;;;7.88;2.08;;;;;;;;;;6231800;23;20440;-74
2022/11/06 05:16:37;;;;;;;7.30;1.60;;;;;;;;;;6231191;23;20015;-75
2022/11/06 05:19:03;;;;;;;5.82;1.50;;;;;;;;;;6226640;23;20028;-75
2022/11/06 05:24:14;;;;;;;9.38;1.73;;;;;;;;;;6227457;23;20024;-75
2022/11/06 05:26:40;;;;;;;6.80;2.58;;;;;;;;;;6225240;23;20070;-73
2022/11/06 05:29:07;;;;;;;10.20;1.85;;;;;;;;;;6201308;23;20016;-74
2022/11/06 05:31:33;;;;;;;9.93;1.80;;;;;;;;;;6229228;23;20004;-74
2022/11/06 05:33:59;;;;;;;12.40;1.90;;;;;;;;;;6229090;23;20119;-75
2022/11/06 05:36:25;;;;;;;10.80;2.08;;;;;;;;;;6229983;23;20000;-74
2022/11/06 05:38:52;;;;;;;10.00;1.55;;;;;;;;;;6228491;23;20420;-75
2022/11/06 05:41:18;;;;;;;6.93;1.63;;;;;;;;;;6229057;23;20475;-75
2022/11/06 05:43:44;;;;;;;10.40;1.50;;;;;;;;;;6228929;23;20782;-75
2022/11/06 05:46:10;;;;;;;7.90;1.45;;;;;;;;;;6228908;23;20799;-75
2022/11/06 05:48:36;;;;;;;8.20;1.85;;;;;;;;;;6229466;23;20083;-75
2022/11/06 05:51:08;;;;;;;5.07;2.03;;;;;;;;;;6229588;23;20000;-75
2022/11/06 05:53:35;;;;;;;8.15;1.65;;;;;;;;;;6226245;23;20004;-75
2022/11/06 05:56:02;;;;;;;5.97;1.30;;;;;;;;;;6228152;22;20087;-74
2022/11/06 05:58:28;;;;;;;6.85;1.10;;;;;;;;;;6228347;23;20065;-74
2022/11/06 06:00:55;;;;;;;7.82;1.30;;;;;;;;;;6229286;23;20004;-74
2022/11/06 06:03:21;;;;;;;5.05;1.08;;;;;;;;;;6228043;23;20415;-75
2022/11/06 06:05:47;;;;;;;6.68;1.23;;;;;;;;;;6228651;23;20339;-75
2022/11/06 06:08:14;;;;;;;5.55;1.30;;;;;;;;;;6228969;23;20458;-75
2022/11/06 06:10:43;;;;;;;8.25;1.40;;;;;;;;;;6202163;23;20022;-74
2022/11/06 06:13:10;;;;;;;5.70;1.80;;;;;;;;;;6225220;23;20450;-76
2022/11/06 06:15:39;;;;;;;8.65;1.77;;;;;;;;;;6228492;23;20500;-74
2022/11/06 06:18:06;;;;;;;8.20;1.67;;;;;;;;;;6228827;23;20014;-75
2022/11/06 06:20:32;;;;;;;7.80;2.10;;;;;;;;;;6228684;23;20046;-75
2022/11/06 06:22:59;;;;;;;6.60;1.60;;;;;;;;;;6229559;23;20066;-76
2022/11/06 06:25:25;;;;;;;6.47;1.50;;;;;;;;;;6227654;23;20004;-76
2022/11/06 06:27:52;;;;;;;8.88;1.90;;;;;;;;;;6228852;23;20032;-74
2022/11/06 06:30:19;;;;;;;7.05;2.10;;;;;;;;;;6228512;23;20008;-73
2022/11/06 06:32:45;;;;;;;6.78;1.58;;;;;;;;;;6226696;23;20011;-74
2022/11/06 06:35:11;;;;;;;7.88;1.83;;;;;;;;;;6225076;23;20724;-74
2022/11/06 06:37:37;;;;;;;8.88;2.03;;;;;;;;;;6199334;23;20065;-74
2022/11/06 06:40:04;;;;;;;6.65;1.35;;;;;;;;;;6200196;23;20077;-74
2022/11/06 06:42:30;;;;;;;6.75;1.42;;;;;;;;;;6226086;23;20007;-75
2022/11/06 06:44:57;;;;;;;6.82;1.73;;;;;;;;;;6226608;23;20004;-74
2022/11/06 06:47:23;;;;;;;9.98;2.30;;;;;;;;;;6224843;23;20008;-74
2022/11/06 06:49:49;;;;;;;11.57;2.10;;;;;;;;;;6226333;23;20139;-74
2022/11/06 06:52:15;;;;;;;9.40;1.92;;;;;;;;;;6229158;23;20000;-74
2022/11/06 06:54:41;;;;;;;7.05;1.30;;;;;;;;;;6228137;23;20055;-74
2022/11/06 06:57:08;;;;;;;7.22;1.50;;;;;;;;;;6226495;22;20410;-75
2022/11/06 06:59:34;;;;;;;7.05;1.48;;;;;;;;;;6201938;23;20008;-74
2022/11/06 07:02:00;;;;;;;12.55;1.73;;;;;;;;;;6229712;23;20015;-74
2022/11/06 07:04:27;;;;;;;12.02;1.92;;;;;;;;;;6230639;23;19996;-73
2022/11/06 07:10:10;;;;;;;11.70;2.33;;;;;;;;;;5823400;23;20447;-85
2022/11/06 07:12:36;;;;;;;11.40;1.90;;;;;;;;;;6171166;23;20013;-85
2022/11/06 07:15:02;;;;;;;10.38;1.50;;;;;;;;;;6174364;23;20005;-85
2022/11/06 07:17:28;;;;;;;10.40;2.38;;;;;;;;;;6170786;23;20096;-86
2022/11/06 07:19:54;;;;;;;4.40;1.27;;;;;;;;;;6175101;23;20301;-85
2022/11/06 07:22:20;;;;;;;8.52;1.70;;;;;;;;;;6175359;23;20442;-86
2022/11/06 07:24:47;;;;;;;8.00;1.30;;;;;;;;;;6176057;23;20004;-85
2022/11/06 07:27:13;;;;;;;10.68;2.17;;;;;;;;;;6173105;23;20012;-84
2022/11/06 07:29:39;;;;;;;10.48;2.30;;;;;;;;;;6174673;23;20103;-85
2022/11/06 07:32:08;;;;;;;6.13;1.38;;;;;;;;;;6166565;23;20545;-87
2022/11/06 07:34:34;;;;;;;7.03;1.58;;;;;;;;;;6169770;23;20100;-85
2022/11/06 07:37:00;;;;;;;6.28;1.67;;;;;;;;;;6162879;23;20013;-85
2022/11/06 07:39:26;;;;;;;5.68;1.40;;;;;;;;;;6170850;23;20016;-85
2022/11/06 07:41:52;;;;;;;9.77;1.88;;;;;;;;;;6170732;23;20028;-85
2022/11/06 07:44:18;;;;;;;9.05;1.67;;;;;;;;;;6171962;23;20036;-85
2022/11/06 07:46:45;;;;;;;7.45;1.30;;;;;;;;;;6175978;23;20011;-84
2022/11/06 07:49:11;;;;;;;7.55;1.50;;;;;;;;;;6202788;23;20012;-85
2022/11/06 07:51:37;;;;;;;7.07;1.50;;;;;;;;;;6171471;23;20011;-85
2022/11/06 07:54:03;;;;;;;8.70;1.50;;;;;;;;;;6174957;23;20012;-86
2022/11/06 07:56:30;;;;;;;13.75;2.03;;;;;;;;;;6174968;23;20657;-85
2022/11/06 07:58:56;;;;;;;11.20;2.03;;;;;;;;;;6175406;23;20631;-85
2022/11/06 08:01:22;;;;;;;6.60;2.15;;;;;;;;;;6173524;23;20000;-86
2022/11/06 08:03:48;;;;;;;13.98;2.60;;;;;;;;;;6174895;23;20028;-85
2022/11/06 08:06:14;;;;;;;8.00;1.60;;;;;;;;;;6176831;23;20455;-86
2022/11/06 08:08:41;;;;;;;3.95;1.63;;;;;;;;;;6171144;23;20027;-84
2022/11/06 08:11:08;;;;;;;6.18;1.25;;;;;;;;;;6161868;23;20017;-86
2022/11/06 08:13:34;;;;;;;8.27;1.58;;;;;;;;;;6165279;23;20034;-86
2022/11/06 08:16:08;;;;;;;5.03;1.48;;;;;;;;;;6162115;23;20009;-86
2022/11/06 08:18:34;;;;;;;5.75;1.25;;;;;;;;;;6164011;23;20036;-85
2022/11/06 08:21:01;;;;;;;7.50;1.65;;;;;;;;;;6157623;23;20199;-85
2022/11/06 08:23:27;;;;;;;8.25;1.40;;;;;;;;;;6158440;23;20104;-85
2022/11/06 08:25:55;;;;;;;7.60;1.80;;;;;;;;;;6165564;23;20067;-85
2022/11/06 08:28:21;;;;;;;5.00;1.08;;;;;;;;;;6166391;23;20017;-85
2022/11/06 08:30:47;;;;;;;5.75;1.33;;;;;;;;;;6165587;23;20032;-86
2022/11/06 08:33:13;;;;;;;7.65;1.20;;;;;;;;;;6162671;23;20005;-85
2022/11/06 08:35:39;;;;;;;4.32;1.30;;;;;;;;;;6171152;23;20496;-86
2022/11/06 08:38:08;;;;;;;4.75;1.17;;;;;;;;;;6171228;23;20044;-85
2022/11/06 08:40:38;;;;;;;5.72;1.08;;;;;;;;;;6170500;23;20431;-85
2022/11/06 08:43:06;;;;;;;7.03;1.38;;;;;;;;;;6170767;23;20143;-86
2022/11/06 08:45:35;;;;;;;10.02;2.40;;;;;;;;;;6166149;23;20079;-86
2022/11/06 08:48:02;;;;;;;4.70;1.42;;;;;;;;;;6167187;23;20012;-85
2022/11/06 08:50:29;;;;;;;6.55;1.65;;;;;;;;;;6168030;23;20032;-85
2022/11/06 08:52:57;;;;;;;4.55;1.30;;;;;;;;;;6168003;23;20513;-85
2022/11/06 08:55:23;;;;;;;5.80;1.27;;;;;;;;;;6162320;23;20009;-86
2022/11/06 08:57:49;;;;;;;7.63;1.40;;;;;;;;;;6168185;23;20020;-84
2022/11/06 09:00:16;;;;;;;6.93;1.50;;;;;;;;;;6169328;23;20005;-85
2022/11/06 09:02:42;;;;;;;8.88;1.73;;;;;;;;;;6168810;23;20147;-84
2022/11/06 09:05:09;;;;;;;5.78;1.00;;;;;;;;;;6167497;23;20001;-85
2022/11/06 09:07:35;;;;;;;5.07;1.55;;;;;;;;;;6170106;23;20013;-85
2022/11/06 09:10:04;;;;;;;3.30;1.35;;;;;;;;;;6171773;23;20455;-86
2022/11/06 09:12:31;;;;;;;7.72;1.60;;;;;;;;;;6174397;23;20008;-84
2022/11/06 09:14:57;;;;;;;6.38;1.83;;;;;;;;;;6174992;23;20098;-86
2022/11/06 09:17:23;;;;;;;6.57;1.70;;;;;;;;;;6174491;23;20415;-85
2022/11/06 09:19:51;;;;;;;6.97;1.17;;;;;;;;;;6175612;23;20356;-85
2022/11/06 09:22:17;;;;;;;5.18;1.40;;;;;;;;;;6172545;23;20057;-85
2022/11/06 09:24:43;;;;;;;6.95;1.40;;;;;;;;;;6174455;23;20031;-85
2022/11/06 09:27:09;;;;;;;4.35;1.50;;;;;;;;;;6175354;23;20008;-85
2022/11/06 09:29:39;;;;;;;12.25;1.73;;;;;;;;;;6174735;23;20442;-85
2022/11/06 09:32:06;;;;;;;5.93;1.50;;;;;;;;;;6175173;23;20115;-84
2022/11/06 09:34:33;;;;;;;6.55;2.15;;;;;;;;;;6174894;23;20051;-85
2022/11/06 09:37:01;;;;;;;7.63;1.90;;;;;;;;;;6176283;23;20099;-85
2022/11/06 09:39:27;;;;;;;6.93;1.95;;;;;;;;;;6176242;23;20422;-85
2022/11/06 09:41:58;;;;;;;7.93;2.03;;;;;;;;;;6176207;23;20508;-85
2022/11/06 09:44:27;;;;;;;7.90;2.45;;;;;;;;;;6175600;23;20412;-85
2022/11/06 09:46:53;;;;;;;6.85;1.67;;;;;;;;;;6173928;23;20012;-86
2022/11/06 09:49:19;;;;;;;6.38;2.88;;;;;;;;;;6175725;23;20024;-85
2022/11/06 09:51:48;;;;;;;14.02;3.13;;;;;;;;;;6176236;23;20009;-86
2022/11/06 09:54:24;;;;;;;7.45;2.00;;;;;;;;;;6175137;23;20187;-85
2022/11/06 09:56:54;;;;;;;5.63;1.60;;;;;;;;;;6172513;23;20000;-86
2022/11/06 09:59:20;;;;;;;4.05;1.33;;;;;;;;;;6175821;23;20065;-86
2022/11/06 10:01:49;;;;;;;7.55;2.25;;;;;;;;;;6202306;23;20012;-86
2022/11/06 10:04:34;;;;;;;8.63;1.67;;;;;;;;;;6202916;23;20697;-87
2022/11/06 10:07:00;;;;;;;7.85;1.75;;;;;;;;;;6173263;23;20016;-85
2022/11/06 10:09:27;;;;;;;8.70;1.73;;;;;;;;;;6175345;23;20016;-85
2022/11/06 10:12:06;;;;;;;10.52;2.28;;;;;;;;;;6170936;23;20396;-85
2022/11/06 10:14:39;;;;;;;7.25;2.50;;;;;;;;;;6170351;23;20096;-85
2022/11/06 10:17:14;;;;;;;9.40;1.80;;;;;;;;;;6170665;23;20439;-86
2022/11/06 10:19:48;;;;;;;7.00;1.48;;;;;;;;;;6168596;23;20102;-86
2022/11/06 10:22:16;;;;;;;8.68;1.45;;;;;;;;;;6169449;23;20485;-85
2022/11/06 10:24:47;;;;;;;8.05;1.40;;;;;;;;;;6171379;23;20001;-85
2022/11/06 10:27:29;;;;;;;6.05;1.90;;;;;;;;;;6169730;23;20009;-86
2022/11/06 10:30:08;;;;;;;7.30;1.48;;;;;;;;;;6170399;23;20013;-85
2022/11/06 10:32:53;;;;;;;5.07;1.58;;;;;;;;;;6168932;23;20433;-85
2022/11/06 10:35:33;;;;;;;6.53;1.80;;;;;;;;;;6170618;23;20091;-85
2022/11/06 10:38:17;;;;;;;6.13;1.60;;;;;;;;;;6169941;23;20096;-85
2022/11/06 10:40:44;;;;;;;7.97;1.77;;;;;;;;;;6172026;23;20005;-85
2022/11/06 10:43:30;;;;;;;13.18;2.08;;;;;;;;;;6169499;23;20355;-85
2022/11/06 10:45:58;;;;;;;7.35;1.48;;;;;;;;;;6168241;23;20059;-86
2022/11/06 10:48:38;;;;;;;6.72;1.73;;;;;;;;;;6168831;23;20025;-85
2022/11/06 10:51:11;;;;;;;6.53;1.50;;;;;;;;;;6168356;23;20015;-86
2022/11/06 10:53:49;;;;;;;10.57;2.00;;;;;;;;;;6169766;23;20404;-86
2022/11/06 10:56:19;;;;;;;2.88;1.30;;;;;;;;;;6166107;23;20047;-86
2022/11/06 10:58:47;;;;;;;5.50;1.50;;;;;;;;;;6168010;23;20032;-87
2022/11/06 11:01:14;;;;;;;6.43;1.35;;;;;;;;;;6170442;23;20005;-87
2022/11/06 11:03:42;;;;;;;6.68;1.48;;;;;;;;;;6167252;23;20332;-87
2022/11/06 11:06:08;;;;;;;8.10;1.50;;;;;;;;;;6164944;23;20084;-87
2022/11/06 11:08:42;;;;;;;5.97;1.20;;;;;;;;;;6166166;23;20017;-87
2022/11/06 11:11:15;;;;;;;5.85;1.58;;;;;;;;;;6166167;23;20021;-87
2022/11/06 11:13:42;;;;;;;4.07;1.13;;;;;;;;;;6167146;23;20513;-85
2022/11/06 11:16:17;;;;;;;4.70;1.20;;;;;;;;;;6164587;23;20430;-85
2022/11/06 11:18:47;;;;;;;5.57;1.55;;;;;;;;;;6164566;23;20012;-85
2022/11/06 11:21:15;;;;;;;3.38;1.20;;;;;;;;;;6168836;23;20753;-87
2022/11/06 11:23:42;;;;;;;4.30;1.48;;;;;;;;;;6168758;23;20068;-86
2022/11/06 11:26:19;;;;;;;4.78;1.17;;;;;;;;;;6168477;23;20074;-86
2022/11/06 11:28:50;;;;;;;6.88;1.25;;;;;;;;;;6166332;23;20013;-86
2022/11/06 11:31:17;;;;;;;5.15;1.13;;;;;;;;;;6168368;23;20012;-86
2022/11/06 11:33:50;;;;;;;5.18;1.45;;;;;;;;;;6168546;23;20052;-86
2022/11/06 11:36:16;;;;;;;3.47;1.15;;;;;;;;;;6166016;23;20391;-85
2022/11/06 11:38:43;;;;;;;9.50;1.70;;;;;;;;;;6166820;23;20049;-85
2022/11/06 11:41:09;;;;;;;7.03;1.63;;;;;;;;;;6166555;23;20075;-86
2022/11/06 11:43:35;;;;;;;7.35;2.08;;;;;;;;;;6166092;23;20417;-87
2022/11/06 11:46:08;;;;;;;13.45;2.20;;;;;;;;;;6163823;23;20593;-86
2022/11/06 11:49:02;;;;;;;5.55;1.42;;;;;;;;;;6165810;23;20028;-85
2022/11/06 11:51:37;;;;;;;2.67;1.00;;;;;;;;;;6164341;23;20485;-86
2022/11/06 11:54:06;;;;;;;7.47;1.98;;;;;;;;;;6170218;23;20016;-86
2022/11/06 11:56:33;;;;;;;3.63;1.52;;;;;;;;;;6165860;23;20005;-85
2022/11/06 11:59:01;;;;;;;6.85;1.98;;;;;;;;;;6167051;23;20009;-86
2022/11/06 12:01:38;;;;;;;4.90;1.52;;;;;;;;;;6169349;23;20016;-85
2022/11/06 12:04:28;;;;;;;5.15;1.30;;;;;;;;;;6167972;23;20631;-85
2022/11/06 12:07:01;;;;;;;5.82;1.42;;;;;;;;;;6156850;23;20365;-85
2022/11/06 12:09:29;;;;;;;4.30;1.85;;;;;;;;;;6168185;23;20016;-85
2022/11/06 12:11:57;;;;;;;5.78;1.48;;;;;;;;;;6165729;23;20099;-85
2022/11/06 12:14:29;;;;;;;5.75;1.40;;;;;;;;;;6167874;23;20008;-86
2022/11/06 12:16:58;;;;;;;5.07;1.40;;;;;;;;;;6167624;23;20016;-85
2022/11/06 12:19:27;;;;;;;15.80;1.95;;;;;;;;;;6163795;23;20043;-85
2022/11/06 12:21:56;;;;;;;6.07;1.65;;;;;;;;;;6166043;23;20455;-86
2022/11/06 12:24:24;;;;;;;5.05;1.48;;;;;;;;;;6167729;23;20068;-85
2022/11/06 12:26:53;;;;;;;8.45;1.65;;;;;;;;;;6166446;23;20008;-85
2022/11/06 12:29:23;;;;;;;7.70;1.60;;;;;;;;;;6168766;23;20024;-85
2022/11/06 12:31:58;;;;;;;5.95;1.95;;;;;;;;;;6167044;23;20080;-86
2022/11/06 12:34:57;;;;;;;10.18;1.63;;;;;;;;;;6168249;23;20460;-86
2022/11/06 12:37:29;;;;;;;4.95;1.60;;;;;;;;;;6120239;23;20432;-85
2022/11/06 12:40:14;;;;;;;5.03;1.38;;;;;;;;;;6166918;23;20083;-86
2022/11/06 12:42:43;;;;;;;5.93;1.70;;;;;;;;;;6168939;23;20028;-86
2022/11/06 12:45:12;;;;;;;5.53;1.58;;;;;;;;;;6168544;23;20013;-86
2022/11/06 12:47:44;;;;;;;6.45;2.17;;;;;;;;;;6168110;23;20019;-86
2022/11/06 12:50:29;;;;;;;7.90;1.70;;;;;;;;;;6171090;23;20515;-86
2022/11/06 12:53:13;;;;;;;6.72;1.55;;;;;;;;;;6168625;23;20833;-85
2022/11/06 12:55:41;;;;;;;4.97;1.25;;;;;;;;;;6165703;23;20119;-85
2022/11/06 12:58:34;;;;;;;6.90;1.58;;;;;;;;;;6168079;23;20103;-86
2022/11/06 13:01:02;;;;;;;3.92;1.92;;;;;;;;;;6168421;23;20403;-85
2022/11/06 13:03:40;;;;;;;6.07;2.03;;;;;;;;;;6168554;23;20037;-86
2022/11/06 13:06:07;;;;;;;4.93;1.80;;;;;;;;;;6167356;23;20005;-86
2022/11/06 13:08:33;;;;;;;8.98;1.73;;;;;;;;;;6167621;23;20017;-86
2022/11/06 13:11:02;;;;;;;4.38;1.30;;;;;;;;;;6166252;23;20232;-85
2022/11/06 13:13:47;;;;;;;4.82;1.15;;;;;;;;;;6168434;23;20051;-84
2022/11/06 13:16:13;;;;;;;6.25;1.70;;;;;;;;;;6168238;23;20009;-85
2022/11/06 13:18:52;;;;;;;5.55;1.58;;;;;;;;;;6166554;23;20294;-87
2022/11/06 13:21:27;;;;;;;6.13;1.25;;;;;;;;;;6169379;23;20039;-86
2022/11/06 13:23:56;;;;;;;5.70;1.20;;;;;;;;;;6168892;23;20868;-86
2022/11/06 13:26:36;;;;;;;3.40;0.90;;;;;;;;;;6166110;23;20243;-86
2022/11/06 13:29:04;;;;;;;4.85;1.50;;;;;;;;;;6168130;23;20063;-85
2022/11/06 13:31:36;;;;;;;3.53;1.52;;;;;;;;;;6167330;23;20012;-86
2022/11/06 13:34:02;;;;;;;7.43;1.58;;;;;;;;;;6168807;23;20080;-86
2022/11/06 13:36:29;;;;;;;2.58;1.02;;;;;;;;;;6167588;23;20119;-86
2022/11/06 13:39:02;;;;;;;5.47;1.20;;;;;;;;;;6168917;23;20019;-86
2022/11/06 13:41:29;;;;;;;5.70;1.30;;;;;;;;;;6166373;23;20455;-86
2022/11/06 13:44:02;;;;;;;5.10;1.35;;;;;;;;;;6168888;23;20012;-86
2022/11/06 13:46:43;;;;;;;5.85;1.27;;;;;;;;;;6168293;23;20067;-87
2022/11/06 13:49:28;;;;;;;7.22;1.80;;;;;;;;;;6167636;23;20467;-85
2022/11/06 13:52:02;;;;;;;3.70;1.10;;;;;;;;;;6168861;23;20007;-86
2022/11/06 13:54:37;;;;;;;3.97;0.90;;;;;;;;;;6168795;23;20119;-86
2022/11/06 13:57:11;;;;;;;5.05;1.48;;;;;;;;;;6170123;23;20815;-85
2022/11/06 13:59:56;;;;;;;3.97;1.10;;;;;;;;;;6169470;23;20384;-86
2022/11/06 14:02:37;;;;;;;5.85;1.80;;;;;;;;;;6170208;23;20013;-86
2022/11/06 14:05:26;;;;;;;4.18;1.40;;;;;;;;;;6168203;23;20079;-86
2022/11/06 14:07:53;;;;;;;4.45;1.65;;;;;;;;;;6170053;23;20045;-86
2022/11/06 14:10:23;;;;;;;6.32;1.38;;;;;;;;;;6169426;23;20116;-86
2022/11/06 14:12:50;;;;;;;3.03;1.27;;;;;;;;;;6170014;23;20009;-86
2022/11/06 14:15:19;;;;;;;4.45;1.27;;;;;;;;;;6167963;23;20102;-86
2022/11/06 14:17:56;;;;;;;4.88;1.15;;;;;;;;;;6169372;23;20466;-86
2022/11/06 14:20:27;;;;;;;4.75;1.90;;;;;;;;;;6169735;23;20005;-86
2022/11/06 14:22:54;;;;;;;1.83;0.90;;;;;;;;;;6169885;23;20811;-85
2022/11/06 14:25:30;;;;;;;6.38;1.65;;;;;;;;;;6167419;23;20056;-86
2022/11/06 14:27:56;;;;;;;3.40;1.15;;;;;;;;;;6169729;23;20380;-86
2022/11/06 14:30:28;;;;;;;4.65;1.17;;;;;;;;;;6169673;23;20070;-86
2022/11/06 14:32:57;;;;;;;5.30;1.48;;;;;;;;;;6169149;23;20005;-86
2022/11/06 14:35:30;;;;;;;7.40;1.60;;;;;;;;;;6167732;23;20495;-86
2022/11/06 14:38:15;;;;;;;4.07;1.10;;;;;;;;;;6169803;23;20001;-86
2022/11/06 14:40:42;;;;;;;4.13;1.65;;;;;;;;;;6169301;23;20095;-86
2022/11/06 14:43:32;;;;;;;8.68;1.63;;;;;;;;;;6169645;23;20005;-86
2022/11/06 14:45:58;;;;;;;7.75;2.03;;;;;;;;;;6157787;23;20348;-87
2022/11/06 14:48:28;;;;;;;6.90;1.77;;;;;;;;;;6165283;23;20067;-87
2022/11/06 14:50:55;;;;;;;6.55;1.73;;;;;;;;;;6170486;23;20001;-86
2022/11/06 14:53:26;;;;;;;4.90;1.88;;;;;;;;;;6170904;23;20013;-86
2022/11/06 14:55:57;;;;;;;5.25;1.95;;;;;;;;;;6167980;23;20408;-86
2022/11/06 14:58:26;;;;;;;4.53;1.50;;;;;;;;;;6172416;23;20310;-86
2022/11/06 15:00:57;;;;;;;5.70;1.50;;;;;;;;;;6170495;23;20004;-85
2022/11/06 15:03:42;;;;;;;4.63;1.10;;;;;;;;;;6170747;23;20027;-85
2022/11/06 15:06:17;;;;;;;4.78;1.55;;;;;;;;;;6167442;23;20079;-87
2022/11/06 15:08:47;;;;;;;4.72;1.30;;;;;;;;;;6170550;23;20020;-86
2022/11/06 15:11:32;;;;;;;3.42;1.40;;;;;;;;;;6170835;23;20025;-87